Charlesville, Minnesota
Current Conditions -  °F | °C
As of 4:36 AM on Saturday 25 Oct 2014 (Local Time) from KETH Reporting Station
Scattered Clouds Scattered Clouds  
Wind Chill: 50°   Ceiling: Unl
Heat Index: 50°   Visibility: 10mi
Dew Point: 36°   Wind: 8mph
Humidity: 58%   Direction: 280°W
Pressure: 30.06"   Gusts: NA
Location:  45.9787°N, 96.4182°W
Report Text: KETH 250936Z AUTO 28007KT 10SM SCT120 10/02 A3006 RMK AO2
Loading
Personal Weather Stations






























Interactive Weather Map
Tropical Storm Tracking
New forecast layout! Learn more

10-Day Weather Forecast

Advertisements
Track Severe Weather on mobile